sensor_id;sensor_type;location;lat;lon;timestamp;temperature;humidity
19037;DHT22;9651;49.138;8.900;2022-11-15T00:01:25;8.30;99.90
19037;DHT22;9651;49.138;8.900;2022-11-15T00:05:47;8.20;99.90
19037;DHT22;9651;49.138;8.900;2022-11-15T00:10:08;8.10;99.90
19037;DHT22;9651;49.138;8.900;2022-11-15T00:14:29;8.10;99.90
19037;DHT22;9651;49.138;8.900;2022-11-15T00:18:50;8.00;99.90
19037;DHT22;9651;49.138;8.900;2022-11-15T00:23:11;8.00;99.90
19037;DHT22;9651;49.138;8.900;2022-11-15T00:27:32;8.00;99.90
19037;DHT22;9651;49.138;8.900;2022-11-15T00:31:52;8.00;99.90
19037;DHT22;9651;49.138;8.900;2022-11-15T00:36:13;8.00;99.90
19037;DHT22;9651;49.138;8.900;2022-11-15T00:40:34;8.00;99.90
19037;DHT22;9651;49.138;8.900;2022-11-15T00:44:55;8.00;99.90
19037;DHT22;9651;49.138;8.900;2022-11-15T00:49:15;7.90;99.90
19037;DHT22;9651;49.138;8.900;2022-11-15T00:53:35;7.90;99.90
19037;DHT22;9651;49.138;8.900;2022-11-15T00:57:57;7.80;99.90
19037;DHT22;9651;49.138;8.900;2022-11-15T01:02:18;7.80;99.90
19037;DHT22;9651;49.138;8.900;2022-11-15T01:06:39;7.80;99.90
19037;DHT22;9651;49.138;8.900;2022-11-15T01:11:02;7.70;99.90
19037;DHT22;9651;49.138;8.900;2022-11-15T01:15:24;7.70;99.90
19037;DHT22;9651;49.138;8.900;2022-11-15T01:19:45;7.60;99.90
19037;DHT22;9651;49.138;8.900;2022-11-15T01:24:06;7.50;99.90
19037;DHT22;9651;49.138;8.900;2022-11-15T01:28:30;7.40;99.90
19037;DHT22;9651;49.138;8.900;2022-11-15T01:32:51;7.40;99.90
19037;DHT22;9651;49.138;8.900;2022-11-15T01:37:12;7.40;99.90
19037;DHT22;9651;49.138;8.900;2022-11-15T01:41:33;7.40;99.90
19037;DHT22;9651;49.138;8.900;2022-11-15T01:45:56;7.40;99.90
19037;DHT22;9651;49.138;8.900;2022-11-15T01:50:23;7.30;99.90
19037;DHT22;9651;49.138;8.900;2022-11-15T01:54:46;7.30;99.90
19037;DHT22;9651;49.138;8.900;2022-11-15T01:59:08;7.20;99.90
19037;DHT22;9651;49.138;8.900;2022-11-15T02:03:36;7.20;99.90
19037;DHT22;9651;49.138;8.900;2022-11-15T02:07:59;7.20;99.90
19037;DHT22;9651;49.138;8.900;2022-11-15T02:12:21;7.20;99.90
19037;DHT22;9651;49.138;8.900;2022-11-15T02:16:48;7.20;99.90
19037;DHT22;9651;49.138;8.900;2022-11-15T02:21:17;7.10;99.90
19037;DHT22;9651;49.138;8.900;2022-11-15T02:25:51;7.20;99.90
19037;DHT22;9651;49.138;8.900;2022-11-15T02:30:23;7.20;99.90
19037;DHT22;9651;49.138;8.900;2022-11-15T02:34:50;7.10;99.90
19037;DHT22;9651;49.138;8.900;2022-11-15T02:39:18;7.00;99.90
19037;DHT22;9651;49.138;8.900;2022-11-15T02:43:47;7.00;99.90
19037;DHT22;9651;49.138;8.900;2022-11-15T02:48:20;7.00;99.90
19037;DHT22;9651;49.138;8.900;2022-11-15T02:52:43;7.00;99.90
19037;DHT22;9651;49.138;8.900;2022-11-15T02:57:11;7.00;99.90
19037;DHT22;9651;49.138;8.900;2022-11-15T03:01:38;7.10;99.90
19037;DHT22;9651;49.138;8.900;2022-11-15T03:06:13;7.10;99.90
19037;DHT22;9651;49.138;8.900;2022-11-15T03:10:44;7.20;99.90
19037;DHT22;9651;49.138;8.900;2022-11-15T03:15:10;7.20;99.90
19037;DHT22;9651;49.138;8.900;2022-11-15T03:19:35;7.20;99.90
19037;DHT22;9651;49.138;8.900;2022-11-15T03:24:01;7.20;99.90
19037;DHT22;9651;49.138;8.900;2022-11-15T03:28:26;7.20;99.90
19037;DHT22;9651;49.138;8.900;2022-11-15T03:32:52;7.30;99.90
19037;DHT22;9651;49.138;8.900;2022-11-15T03:37:14;7.40;99.90
19037;DHT22;9651;49.138;8.900;2022-11-15T03:41:40;7.40;99.90
19037;DHT22;9651;49.138;8.900;2022-11-15T03:46:05;7.50;99.90
19037;DHT22;9651;49.138;8.900;2022-11-15T03:50:28;7.50;99.90
19037;DHT22;9651;49.138;8.900;2022-11-15T03:54:50;7.50;99.90
19037;DHT22;9651;49.138;8.900;2022-11-15T03:59:13;7.50;99.90
19037;DHT22;9651;49.138;8.900;2022-11-15T04:03:34;7.60;99.90
19037;DHT22;9651;49.138;8.900;2022-11-15T04:07:54;7.70;99.90
19037;DHT22;9651;49.138;8.900;2022-11-15T04:12:14;7.80;99.90
19037;DHT22;9651;49.138;8.900;2022-11-15T04:16:51;7.80;99.90
19037;DHT22;9651;49.138;8.900;2022-11-15T04:21:11;7.80;99.90
19037;DHT22;9651;49.138;8.900;2022-11-15T04:25:51;7.90;99.90
19037;DHT22;9651;49.138;8.900;2022-11-15T04:30:12;7.90;99.90
19037;DHT22;9651;49.138;8.900;2022-11-15T04:34:33;7.90;99.90
19037;DHT22;9651;49.138;8.900;2022-11-15T04:38:54;7.90;99.90
19037;DHT22;9651;49.138;8.900;2022-11-15T04:43:14;8.00;99.90
19037;DHT22;9651;49.138;8.900;2022-11-15T04:47:35;8.00;99.90
19037;DHT22;9651;49.138;8.900;2022-11-15T04:51:57;8.00;99.90
19037;DHT22;9651;49.138;8.900;2022-11-15T04:56:18;8.10;99.90
19037;DHT22;9651;49.138;8.900;2022-11-15T05:00:38;8.10;99.90
19037;DHT22;9651;49.138;8.900;2022-11-15T05:04:59;8.10;99.90
19037;DHT22;9651;49.138;8.900;2022-11-15T05:09:21;8.10;99.90
19037;DHT22;9651;49.138;8.900;2022-11-15T05:13:41;8.10;99.90
19037;DHT22;9651;49.138;8.900;2022-11-15T05:18:02;8.00;99.90
19037;DHT22;9651;49.138;8.900;2022-11-15T05:22:23;8.00;99.90
19037;DHT22;9651;49.138;8.900;2022-11-15T05:26:44;8.00;99.90
19037;DHT22;9651;49.138;8.900;2022-11-15T05:31:06;8.00;99.90
19037;DHT22;9651;49.138;8.900;2022-11-15T05:35:30;7.90;99.90
19037;DHT22;9651;49.138;8.900;2022-11-15T05:39:51;7.80;99.90
19037;DHT22;9651;49.138;8.900;2022-11-15T05:44:17;7.80;99.90
19037;DHT22;9651;49.138;8.900;2022-11-15T05:48:41;7.90;99.90
19037;DHT22;9651;49.138;8.900;2022-11-15T05:53:02;7.90;99.90
19037;DHT22;9651;49.138;8.900;2022-11-15T05:57:24;7.80;99.90
19037;DHT22;9651;49.138;8.900;2022-11-15T06:01:45;7.80;99.90
19037;DHT22;9651;49.138;8.900;2022-11-15T06:06:06;7.80;99.90
19037;DHT22;9651;49.138;8.900;2022-11-15T06:10:26;7.80;99.90
19037;DHT22;9651;49.138;8.900;2022-11-15T06:14:47;7.80;99.90
19037;DHT22;9651;49.138;8.900;2022-11-15T06:19:08;7.80;99.90
19037;DHT22;9651;49.138;8.900;2022-11-15T06:23:32;7.80;99.90
19037;DHT22;9651;49.138;8.900;2022-11-15T06:27:54;7.90;99.90
19037;DHT22;9651;49.138;8.900;2022-11-15T06:32:15;7.90;99.90
19037;DHT22;9651;49.138;8.900;2022-11-15T06:36:37;7.90;99.90
19037;DHT22;9651;49.138;8.900;2022-11-15T06:41:01;7.90;99.90
19037;DHT22;9651;49.138;8.900;2022-11-15T06:45:22;7.90;99.90
19037;DHT22;9651;49.138;8.900;2022-11-15T06:49:42;7.90;99.90
19037;DHT22;9651;49.138;8.900;2022-11-15T06:54:05;8.00;99.90
19037;DHT22;9651;49.138;8.900;2022-11-15T06:58:25;8.00;99.90
19037;DHT22;9651;49.138;8.900;2022-11-15T07:02:46;8.00;99.90
19037;DHT22;9651;49.138;8.900;2022-11-15T07:07:07;8.10;99.90
19037;DHT22;9651;49.138;8.900;2022-11-15T07:11:28;8.10;99.90
19037;DHT22;9651;49.138;8.900;2022-11-15T07:15:49;8.20;99.90
19037;DHT22;9651;49.138;8.900;2022-11-15T07:20:10;8.40;99.90
19037;DHT22;9651;49.138;8.900;2022-11-15T07:24:32;8.50;99.90
19037;DHT22;9651;49.138;8.900;2022-11-15T07:28:54;8.70;99.90
19037;DHT22;9651;49.138;8.900;2022-11-15T07:33:14;8.90;99.90
19037;DHT22;9651;49.138;8.900;2022-11-15T07:37:35;8.90;99.90
19037;DHT22;9651;49.138;8.900;2022-11-15T07:41:55;9.00;99.90
19037;DHT22;9651;49.138;8.900;2022-11-15T07:46:31;9.10;99.90
19037;DHT22;9651;49.138;8.900;2022-11-15T07:50:52;9.20;99.90
19037;DHT22;9651;49.138;8.900;2022-11-15T07:55:12;9.30;99.90
19037;DHT22;9651;49.138;8.900;2022-11-15T07:59:33;9.50;99.90
19037;DHT22;9651;49.138;8.900;2022-11-15T08:03:56;9.60;99.90
19037;DHT22;9651;49.138;8.900;2022-11-15T08:08:16;9.70;99.90
19037;DHT22;9651;49.138;8.900;2022-11-15T08:12:37;9.80;99.90
19037;DHT22;9651;49.138;8.900;2022-11-15T08:16:57;10.00;99.90
19037;DHT22;9651;49.138;8.900;2022-11-15T08:21:21;10.10;99.90
19037;DHT22;9651;49.138;8.900;2022-11-15T08:25:41;10.20;99.90
19037;DHT22;9651;49.138;8.900;2022-11-15T08:30:03;10.30;99.90
19037;DHT22;9651;49.138;8.900;2022-11-15T08:34:24;10.40;99.90
19037;DHT22;9651;49.138;8.900;2022-11-15T08:38:46;10.60;99.90
19037;DHT22;9651;49.138;8.900;2022-11-15T08:43:06;10.80;99.90
19037;DHT22;9651;49.138;8.900;2022-11-15T08:47:27;11.10;99.90
19037;DHT22;9651;49.138;8.900;2022-11-15T08:51:47;11.30;99.90
19037;DHT22;9651;49.138;8.900;2022-11-15T08:56:11;11.50;99.90
19037;DHT22;9651;49.138;8.900;2022-11-15T09:00:32;11.70;99.90
19037;DHT22;9651;49.138;8.900;2022-11-15T09:04:53;11.90;99.90
19037;DHT22;9651;49.138;8.900;2022-11-15T09:09:13;12.00;99.90
19037;DHT22;9651;49.138;8.900;2022-11-15T09:13:36;12.10;99.90
19037;DHT22;9651;49.138;8.900;2022-11-15T09:17:58;12.20;99.90
19037;DHT22;9651;49.138;8.900;2022-11-15T09:22:18;12.40;99.90
19037;DHT22;9651;49.138;8.900;2022-11-15T09:26:39;12.50;99.90
19037;DHT22;9651;49.138;8.900;2022-11-15T09:31:02;12.70;99.90
19037;DHT22;9651;49.138;8.900;2022-11-15T09:35:23;12.80;99.90
19037;DHT22;9651;49.138;8.900;2022-11-15T09:39:43;13.00;99.90
19037;DHT22;9651;49.138;8.900;2022-11-15T09:44:16;13.20;99.90
19037;DHT22;9651;49.138;8.900;2022-11-15T09:48:52;13.40;99.90
19037;DHT22;9651;49.138;8.900;2022-11-15T09:53:22;13.50;99.90
19037;DHT22;9651;49.138;8.900;2022-11-15T09:57:32;13.60;99.90
19037;DHT22;9651;49.138;8.900;2022-11-15T10:01:41;13.70;99.90
19037;DHT22;9651;49.138;8.900;2022-11-15T10:05:48;14.10;99.90
19037;DHT22;9651;49.138;8.900;2022-11-15T10:09:54;14.30;99.90
19037;DHT22;9651;49.138;8.900;2022-11-15T10:14:00;14.40;99.90
19037;DHT22;9651;49.138;8.900;2022-11-15T10:18:12;14.50;99.90
19037;DHT22;9651;49.138;8.900;2022-11-15T10:22:25;14.50;99.90
19037;DHT22;9651;49.138;8.900;2022-11-15T10:26:28;14.70;99.90
19037;DHT22;9651;49.138;8.900;2022-11-15T10:30:33;14.70;99.90
19037;DHT22;9651;49.138;8.900;2022-11-15T10:34:36;14.70;99.90
19037;DHT22;9651;49.138;8.900;2022-11-15T10:38:52;14.80;99.90
19037;DHT22;9651;49.138;8.900;2022-11-15T10:43:06;14.70;99.90
19037;DHT22;9651;49.138;8.900;2022-11-15T10:47:23;14.70;99.90
19037;DHT22;9651;49.138;8.900;2022-11-15T10:51:27;14.70;99.90
19037;DHT22;9651;49.138;8.900;2022-11-15T10:55:32;14.60;99.90
19037;DHT22;9651;49.138;8.900;2022-11-15T10:59:36;14.50;99.90
19037;DHT22;9651;49.138;8.900;2022-11-15T11:03:40;14.40;99.90
19037;DHT22;9651;49.138;8.900;2022-11-15T11:07:55;14.40;99.90
19037;DHT22;9651;49.138;8.900;2022-11-15T11:12:00;14.40;99.90
19037;DHT22;9651;49.138;8.900;2022-11-15T11:16:25;14.50;99.90
19037;DHT22;9651;49.138;8.900;2022-11-15T11:20:36;14.70;99.90
19037;DHT22;9651;49.138;8.900;2022-11-15T11:24:44;14.90;99.90
19037;DHT22;9651;49.138;8.900;2022-11-15T11:28:56;14.90;99.90
19037;DHT22;9651;49.138;8.900;2022-11-15T11:33:10;15.00;99.90
19037;DHT22;9651;49.138;8.900;2022-11-15T11:37:20;15.10;99.90
19037;DHT22;9651;49.138;8.900;2022-11-15T11:41:43;15.40;99.90
19037;DHT22;9651;49.138;8.900;2022-11-15T11:46:03;15.90;99.90
19037;DHT22;9651;49.138;8.900;2022-11-15T11:50:13;16.40;99.90
19037;DHT22;9651;49.138;8.900;2022-11-15T11:54:20;16.60;99.90
19037;DHT22;9651;49.138;8.900;2022-11-15T11:58:26;16.70;99.90
19037;DHT22;9651;49.138;8.900;2022-11-15T12:02:34;16.50;99.90
19037;DHT22;9651;49.138;8.900;2022-11-15T12:06:40;16.40;99.90
19037;DHT22;9651;49.138;8.900;2022-11-15T12:10:46;16.30;99.90
19037;DHT22;9651;49.138;8.900;2022-11-15T12:14:53;16.20;99.90
19037;DHT22;9651;49.138;8.900;2022-11-15T12:19:00;16.10;99.90
19037;DHT22;9651;49.138;8.900;2022-11-15T12:23:06;16.10;99.90
19037;DHT22;9651;49.138;8.900;2022-11-15T12:27:17;16.00;99.90
19037;DHT22;9651;49.138;8.900;2022-11-15T12:31:22;15.90;99.90
19037;DHT22;9651;49.138;8.900;2022-11-15T12:35:33;15.70;99.90
19037;DHT22;9651;49.138;8.900;2022-11-15T12:40:04;15.60;99.90
19037;DHT22;9651;49.138;8.900;2022-11-15T12:44:11;15.50;99.90
19037;DHT22;9651;49.138;8.900;2022-11-15T12:53:29;15.20;99.90
19037;DHT22;9651;49.138;8.900;2022-11-15T12:57:39;15.10;99.90
19037;DHT22;9651;49.138;8.900;2022-11-15T13:01:57;14.90;99.90
19037;DHT22;9651;49.138;8.900;2022-11-15T13:10:50;15.00;99.90
19037;DHT22;9651;49.138;8.900;2022-11-15T13:14:52;15.00;99.90
19037;DHT22;9651;49.138;8.900;2022-11-15T13:19:02;15.10;99.90
19037;DHT22;9651;49.138;8.900;2022-11-15T13:23:10;15.20;99.90
19037;DHT22;9651;49.138;8.900;2022-11-15T13:27:16;15.20;99.90
19037;DHT22;9651;49.138;8.900;2022-11-15T13:31:29;15.20;99.90
19037;DHT22;9651;49.138;8.900;2022-11-15T13:35:33;15.20;99.90
19037;DHT22;9651;49.138;8.900;2022-11-15T13:39:37;15.30;99.90
19037;DHT22;9651;49.138;8.900;2022-11-15T13:43:41;15.20;99.90
19037;DHT22;9651;49.138;8.900;2022-11-15T13:47:42;15.30;99.90
19037;DHT22;9651;49.138;8.900;2022-11-15T13:51:47;15.20;99.90
19037;DHT22;9651;49.138;8.900;2022-11-15T13:55:50;15.20;99.90
19037;DHT22;9651;49.138;8.900;2022-11-15T13:59:55;15.10;99.90
19037;DHT22;9651;49.138;8.900;2022-11-15T14:03:59;15.00;99.90
19037;DHT22;9651;49.138;8.900;2022-11-15T14:08:04;15.00;99.90
19037;DHT22;9651;49.138;8.900;2022-11-15T14:12:34;15.00;99.90
19037;DHT22;9651;49.138;8.900;2022-11-15T14:16:39;15.00;99.90
19037;DHT22;9651;49.138;8.900;2022-11-15T14:20:42;14.90;99.90
19037;DHT22;9651;49.138;8.900;2022-11-15T14:24:45;15.00;99.90
19037;DHT22;9651;49.138;8.900;2022-11-15T14:28:47;15.00;99.90
19037;DHT22;9651;49.138;8.900;2022-11-15T14:32:50;14.90;99.90
19037;DHT22;9651;49.138;8.900;2022-11-15T14:36:52;14.70;99.90
19037;DHT22;9651;49.138;8.900;2022-11-15T14:40:54;14.60;99.90
19037;DHT22;9651;49.138;8.900;2022-11-15T14:44:57;14.60;99.90
19037;DHT22;9651;49.138;8.900;2022-11-15T14:49:00;14.50;99.90
19037;DHT22;9651;49.138;8.900;2022-11-15T14:53:02;14.40;99.90
19037;DHT22;9651;49.138;8.900;2022-11-15T14:57:05;14.30;99.90
19037;DHT22;9651;49.138;8.900;2022-11-15T15:01:12;14.20;99.90
19037;DHT22;9651;49.138;8.900;2022-11-15T15:05:18;14.20;99.90
19037;DHT22;9651;49.138;8.900;2022-11-15T15:09:20;14.10;99.90
19037;DHT22;9651;49.138;8.900;2022-11-15T15:13:24;14.10;99.90
19037;DHT22;9651;49.138;8.900;2022-11-15T15:17:26;14.00;99.90
19037;DHT22;9651;49.138;8.900;2022-11-15T15:21:29;14.00;99.90
19037;DHT22;9651;49.138;8.900;2022-11-15T15:25:34;14.00;99.90
19037;DHT22;9651;49.138;8.900;2022-11-15T15:29:36;13.90;99.90
19037;DHT22;9651;49.138;8.900;2022-11-15T15:33:38;13.90;99.90
19037;DHT22;9651;49.138;8.900;2022-11-15T15:37:42;13.90;99.90
19037;DHT22;9651;49.138;8.900;2022-11-15T15:41:44;13.80;99.90
19037;DHT22;9651;49.138;8.900;2022-11-15T15:45:46;13.70;99.90
19037;DHT22;9651;49.138;8.900;2022-11-15T15:49:49;13.60;99.90
19037;DHT22;9651;49.138;8.900;2022-11-15T15:53:52;13.50;99.90
19037;DHT22;9651;49.138;8.900;2022-11-15T15:57:58;13.40;99.90
19037;DHT22;9651;49.138;8.900;2022-11-15T16:01:59;13.20;99.90
19037;DHT22;9651;49.138;8.900;2022-11-15T16:06:02;13.20;99.90
19037;DHT22;9651;49.138;8.900;2022-11-15T16:10:17;13.10;99.90
19037;DHT22;9651;49.138;8.900;2022-11-15T16:14:19;13.10;99.90
19037;DHT22;9651;49.138;8.900;2022-11-15T16:18:20;13.00;99.90
19037;DHT22;9651;49.138;8.900;2022-11-15T16:22:22;13.00;99.90
19037;DHT22;9651;49.138;8.900;2022-11-15T16:26:27;12.90;99.90
19037;DHT22;9651;49.138;8.900;2022-11-15T16:30:30;12.90;99.90
19037;DHT22;9651;49.138;8.900;2022-11-15T16:34:32;12.90;99.90
19037;DHT22;9651;49.138;8.900;2022-11-15T16:38:33;12.90;99.90
19037;DHT22;9651;49.138;8.900;2022-11-15T16:42:37;12.90;99.90
19037;DHT22;9651;49.138;8.900;2022-11-15T16:46:41;12.90;99.90
19037;DHT22;9651;49.138;8.900;2022-11-15T16:50:43;12.90;99.90
19037;DHT22;9651;49.138;8.900;2022-11-15T16:54:45;12.80;99.90
19037;DHT22;9651;49.138;8.900;2022-11-15T16:58:49;12.80;99.90
19037;DHT22;9651;49.138;8.900;2022-11-15T17:02:51;12.70;99.90
19037;DHT22;9651;49.138;8.900;2022-11-15T17:06:53;12.70;99.90
19037;DHT22;9651;49.138;8.900;2022-11-15T17:10:55;12.60;99.90
19037;DHT22;9651;49.138;8.900;2022-11-15T17:14:58;12.70;99.90
19037;DHT22;9651;49.138;8.900;2022-11-15T17:19:00;12.90;99.90
19037;DHT22;9651;49.138;8.900;2022-11-15T17:23:02;13.00;99.90
19037;DHT22;9651;49.138;8.900;2022-11-15T17:27:04;13.10;99.90
19037;DHT22;9651;49.138;8.900;2022-11-15T17:31:08;13.10;99.90
19037;DHT22;9651;49.138;8.900;2022-11-15T17:35:11;13.00;99.90
19037;DHT22;9651;49.138;8.900;2022-11-15T17:39:13;13.00;99.90
19037;DHT22;9651;49.138;8.900;2022-11-15T17:43:14;12.90;99.90
19037;DHT22;9651;49.138;8.900;2022-11-15T17:47:18;12.90;99.90
19037;DHT22;9651;49.138;8.900;2022-11-15T17:51:19;12.80;99.90
19037;DHT22;9651;49.138;8.900;2022-11-15T17:55:22;12.80;99.90
19037;DHT22;9651;49.138;8.900;2022-11-15T17:59:24;12.90;99.90
19037;DHT22;9651;49.138;8.900;2022-11-15T18:03:27;12.90;99.90
19037;DHT22;9651;49.138;8.900;2022-11-15T18:07:29;13.00;99.90
19037;DHT22;9651;49.138;8.900;2022-11-15T18:11:32;12.90;99.90
19037;DHT22;9651;49.138;8.900;2022-11-15T18:15:34;13.00;99.90
19037;DHT22;9651;49.138;8.900;2022-11-15T18:19:38;12.90;99.90
19037;DHT22;9651;49.138;8.900;2022-11-15T18:23:40;12.80;99.90
19037;DHT22;9651;49.138;8.900;2022-11-15T18:27:43;12.80;99.90
19037;DHT22;9651;49.138;8.900;2022-11-15T18:31:45;12.70;99.90
19037;DHT22;9651;49.138;8.900;2022-11-15T18:35:58;12.70;99.90
19037;DHT22;9651;49.138;8.900;2022-11-15T18:40:00;12.70;99.90
19037;DHT22;9651;49.138;8.900;2022-11-15T18:44:02;12.80;99.90
19037;DHT22;9651;49.138;8.900;2022-11-15T18:48:04;12.90;99.90
19037;DHT22;9651;49.138;8.900;2022-11-15T18:52:08;13.00;99.90
19037;DHT22;9651;49.138;8.900;2022-11-15T18:56:12;13.00;99.90
19037;DHT22;9651;49.138;8.900;2022-11-15T19:00:15;13.00;99.90
19037;DHT22;9651;49.138;8.900;2022-11-15T19:04:18;13.00;99.90
19037;DHT22;9651;49.138;8.900;2022-11-15T19:08:23;12.90;99.90
19037;DHT22;9651;49.138;8.900;2022-11-15T19:12:24;12.90;99.90
19037;DHT22;9651;49.138;8.900;2022-11-15T19:16:26;12.90;99.90
19037;DHT22;9651;49.138;8.900;2022-11-15T19:20:29;12.90;99.90
19037;DHT22;9651;49.138;8.900;2022-11-15T19:24:32;12.80;99.90
19037;DHT22;9651;49.138;8.900;2022-11-15T19:28:34;12.80;99.90
19037;DHT22;9651;49.138;8.900;2022-11-15T19:32:36;12.80;99.90
19037;DHT22;9651;49.138;8.900;2022-11-15T19:36:39;12.70;99.90
19037;DHT22;9651;49.138;8.900;2022-11-15T19:40:42;12.70;99.90
19037;DHT22;9651;49.138;8.900;2022-11-15T19:44:44;12.70;99.90
19037;DHT22;9651;49.138;8.900;2022-11-15T19:48:46;12.70;99.90
19037;DHT22;9651;49.138;8.900;2022-11-15T19:52:48;12.80;99.90
19037;DHT22;9651;49.138;8.900;2022-11-15T19:56:51;12.80;99.90
19037;DHT22;9651;49.138;8.900;2022-11-15T20:00:59;12.80;99.90
19037;DHT22;9651;49.138;8.900;2022-11-15T20:05:02;12.80;99.90
19037;DHT22;9651;49.138;8.900;2022-11-15T20:09:04;12.80;99.90
19037;DHT22;9651;49.138;8.900;2022-11-15T20:13:07;12.80;99.90
19037;DHT22;9651;49.138;8.900;2022-11-15T20:17:09;12.80;99.90
19037;DHT22;9651;49.138;8.900;2022-11-15T20:21:11;12.90;99.90
19037;DHT22;9651;49.138;8.900;2022-11-15T20:25:13;12.90;99.90
19037;DHT22;9651;49.138;8.900;2022-11-15T20:29:17;12.90;99.90
19037;DHT22;9651;49.138;8.900;2022-11-15T20:33:19;12.90;99.90
19037;DHT22;9651;49.138;8.900;2022-11-15T20:37:25;12.90;99.90
19037;DHT22;9651;49.138;8.900;2022-11-15T20:41:27;12.80;99.90
19037;DHT22;9651;49.138;8.900;2022-11-15T20:45:30;12.80;99.90
19037;DHT22;9651;49.138;8.900;2022-11-15T20:49:32;12.80;99.90
19037;DHT22;9651;49.138;8.900;2022-11-15T20:53:34;12.70;99.90
19037;DHT22;9651;49.138;8.900;2022-11-15T20:57:36;12.70;99.90
19037;DHT22;9651;49.138;8.900;2022-11-15T21:01:39;12.70;99.90
19037;DHT22;9651;49.138;8.900;2022-11-15T21:05:42;12.60;99.90
19037;DHT22;9651;49.138;8.900;2022-11-15T21:09:44;12.60;99.90
19037;DHT22;9651;49.138;8.900;2022-11-15T21:14:03;12.60;99.90
19037;DHT22;9651;49.138;8.900;2022-11-15T21:18:07;12.40;99.90
19037;DHT22;9651;49.138;8.900;2022-11-15T21:22:10;12.40;99.90
19037;DHT22;9651;49.138;8.900;2022-11-15T21:26:13;12.30;99.90
19037;DHT22;9651;49.138;8.900;2022-11-15T21:30:16;12.40;99.90
19037;DHT22;9651;49.138;8.900;2022-11-15T21:34:19;12.40;99.90
19037;DHT22;9651;49.138;8.900;2022-11-15T21:38:21;12.40;99.90
19037;DHT22;9651;49.138;8.900;2022-11-15T21:42:24;12.40;99.90
19037;DHT22;9651;49.138;8.900;2022-11-15T21:46:26;12.30;99.90
19037;DHT22;9651;49.138;8.900;2022-11-15T21:50:30;12.30;99.90
19037;DHT22;9651;49.138;8.900;2022-11-15T21:54:31;12.30;99.90
19037;DHT22;9651;49.138;8.900;2022-11-15T21:58:34;12.20;99.90
19037;DHT22;9651;49.138;8.900;2022-11-15T22:02:36;12.20;99.90
19037;DHT22;9651;49.138;8.900;2022-11-15T22:06:39;12.20;99.90
19037;DHT22;9651;49.138;8.900;2022-11-15T22:10:45;12.10;99.90
19037;DHT22;9651;49.138;8.900;2022-11-15T22:14:47;12.10;99.90
19037;DHT22;9651;49.138;8.900;2022-11-15T22:18:49;12.10;99.90
19037;DHT22;9651;49.138;8.900;2022-11-15T22:22:52;12.10;99.90
19037;DHT22;9651;49.138;8.900;2022-11-15T22:26:54;12.10;99.90
19037;DHT22;9651;49.138;8.900;2022-11-15T22:30:57;12.00;99.90
19037;DHT22;9651;49.138;8.900;2022-11-15T22:34:59;12.00;99.90
19037;DHT22;9651;49.138;8.900;2022-11-15T22:39:02;11.90;99.90
19037;DHT22;9651;49.138;8.900;2022-11-15T22:43:05;11.80;99.90
19037;DHT22;9651;49.138;8.900;2022-11-15T22:47:07;11.80;99.90
19037;DHT22;9651;49.138;8.900;2022-11-15T22:51:09;11.80;99.90
19037;DHT22;9651;49.138;8.900;2022-11-15T22:55:12;11.80;99.90
19037;DHT22;9651;49.138;8.900;2022-11-15T22:59:14;11.80;99.90
19037;DHT22;9651;49.138;8.900;2022-11-15T23:03:18;11.80;99.90
19037;DHT22;9651;49.138;8.900;2022-11-15T23:07:20;11.80;99.90
19037;DHT22;9651;49.138;8.900;2022-11-15T23:11:23;11.70;99.90
19037;DHT22;9651;49.138;8.900;2022-11-15T23:15:44;11.70;99.90
19037;DHT22;9651;49.138;8.900;2022-11-15T23:20:04;11.70;99.90
19037;DHT22;9651;49.138;8.900;2022-11-15T23:24:09;11.70;99.90
19037;DHT22;9651;49.138;8.900;2022-11-15T23:28:12;11.60;99.90
19037;DHT22;9651;49.138;8.900;2022-11-15T23:32:14;11.60;99.90
19037;DHT22;9651;49.138;8.900;2022-11-15T23:36:48;11.60;99.90
19037;DHT22;9651;49.138;8.900;2022-11-15T23:40:51;11.50;99.90
19037;DHT22;9651;49.138;8.900;2022-11-15T23:44:54;11.50;99.90
19037;DHT22;9651;49.138;8.900;2022-11-15T23:48:56;11.50;99.90
19037;DHT22;9651;49.138;8.900;2022-11-15T23:52:58;11.50;99.90
19037;DHT22;9651;49.138;8.900;2022-11-15T23:57:00;11.50;99.90
